الصفحة الرئيسية
METAR-TAF:

METAR-TAF

مطار :

مطار تيرانا الدولي

تيرانا, ألبانيا

دائرة عرض: 41-20N, خط طول: 019-47E, ارتفاع: 89 متر

مراقبة الطقس الحالي

تاريخ ووقت الإصدار 32 دقيقة قبل الساعة 02:20UTC
رياح هادئة
درجة الحرارة 1°درجة مئوية
الرطوبة 93%
ضغط 1018 hPa
الرؤية 10 كم أو أكثر
غيوم متفرقة على ارتفاع 5100 قدم

METAR: LATI 010220Z 00000KT 9999 SCT051 01/M00 Q1018 NOSIG

زمن: 03:52 (02:52 UTC)

توقعات

تاريخ ووقت الإصدار 3ساعات و 52 دقيقة قبل الساعة 23:00UTC
التوقعات صالحة من01 الساعة 00 UTC إلى 01 الساعة 24 UTC
ريح 5 عقدةمن اتجاهات متغيرة
الرؤية 10 كم أو أكثر
غيوم متفرقة على ارتفاع 4000 قدم

TAF: LATI 302300Z 0100/0124 VRB05KT 9999 SCT040 TX14/0112Z TN01/0105Z

أرصاد الطقس والتوقعات من أكثر من 4000 مطار (تقارير الطقس للمطار METAR والتنبؤ بالطقس بالمطارTAF).

المحطات المتاحة هي النقط الصفراء والحمراء على الخريطة.

حرك المؤشر فوق النقطة لمعرفة اسم المحطة.

ثم انقر لمعرفة أرصاد وتوقعات الطقس.

لتغيير الخارطة: اضغط على الأزرار الخضراء مع رمز الصليب الأسود للتكبير. على الزر الأخضر مع شرطة للتصغير، أو على الأسهم الخضراء للخرائط المجاورة.


METAR-TAF: